FBDCM LFOK-LFOH
Flight info
| Callsign | FBDCM |
|---|---|
| Flight time | 1h 25m |
| Altitude | 6000 |
| Route | LFOK DCT LFOH |
| Aircraft | C172/L-SDFGY/S |
Departure
| Time | 2026-04-26 17:50 |
|---|---|
| Airport | Chalons Vatry airport (LFOK) |
Arrival
| Time | 2026-04-26 19:15 |
|---|---|
| Airport | Le Havre-Octeville Airport (LFOH) |
| Time | Latitude | Longitude | Altitude | Speed | Heading |
|---|---|---|---|---|---|
| 2026-04-26 17:42 | 48.77963 | 4.18000 | 584 ft | 0 kts | 14° |
| 2026-04-26 17:43 | 48.77981 | 4.18038 | 585 ft | 14 kts | 89° |
| 2026-04-26 17:43 | 48.77881 | 4.18169 | 586 ft | 23 kts | 161° |
| 2026-04-26 17:44 | 48.77826 | 4.18354 | 587 ft | 18 kts | 101° |
| 2026-04-26 17:44 | 48.77812 | 4.18468 | 588 ft | 15 kts | 101° |
| 2026-04-26 17:44 | 48.77793 | 4.18610 | 588 ft | 12 kts | 99° |
| 2026-04-26 17:44 | 48.77779 | 4.18724 | 589 ft | 10 kts | 102° |
| 2026-04-26 17:45 | 48.77767 | 4.18812 | 590 ft | 8 kts | 102° |
| 2026-04-26 17:45 | 48.77754 | 4.18911 | 590 ft | 15 kts | 101° |
| 2026-04-26 17:45 | 48.77722 | 4.19141 | 591 ft | 26 kts | 104° |
| 2026-04-26 17:45 | 48.77684 | 4.19435 | 593 ft | 26 kts | 101° |
| 2026-04-26 17:46 | 48.77649 | 4.19704 | 595 ft | 26 kts | 101° |
| 2026-04-26 17:46 | 48.77614 | 4.19982 | 597 ft | 27 kts | 101° |
| 2026-04-26 17:46 | 48.77578 | 4.20239 | 599 ft | 22 kts | 102° |
| 2026-04-26 17:46 | 48.77551 | 4.20453 | 600 ft | 19 kts | 101° |
| 2026-04-26 17:47 | 48.77528 | 4.20636 | 601 ft | 16 kts | 101° |
| 2026-04-26 17:47 | 48.77513 | 4.20744 | 601 ft | 17 kts | 101° |
| 2026-04-26 17:47 | 48.77469 | 4.21001 | 603 ft | 21 kts | 137° |
| 2026-04-26 17:47 | 48.77381 | 4.21007 | 603 ft | 0 kts | 192° |
| 2026-04-26 17:49 | 48.77287 | 4.20892 | 603 ft | 25 kts | 274° |
| 2026-04-26 17:49 | 48.77347 | 4.20456 | 600 ft | 67 kts | 282° |
| 2026-04-26 17:49 | 48.77430 | 4.19664 | 755 ft | 80 kts | 278° |
| 2026-04-26 17:49 | 48.77514 | 4.18793 | 922 ft | 90 kts | 277° |
| 2026-04-26 17:50 | 48.77607 | 4.17809 | 1072 ft | 97 kts | 280° |
| 2026-04-26 17:50 | 48.77730 | 4.16813 | 1282 ft | 96 kts | 282° |
| 2026-04-26 17:50 | 48.77881 | 4.15804 | 1464 ft | 97 kts | 290° |
| 2026-04-26 17:50 | 48.78113 | 4.14831 | 1646 ft | 98 kts | 289° |
| 2026-04-26 17:51 | 48.78333 | 4.13850 | 1827 ft | 99 kts | 289° |
| 2026-04-26 17:51 | 48.78553 | 4.12863 | 2006 ft | 99 kts | 289° |
| 2026-04-26 17:51 | 48.78774 | 4.11875 | 2185 ft | 99 kts | 289° |
| 2026-04-26 17:51 | 48.78996 | 4.10883 | 2358 ft | 99 kts | 289° |
| 2026-04-26 17:52 | 48.79218 | 4.09886 | 2526 ft | 100 kts | 289° |
| 2026-04-26 17:52 | 48.79440 | 4.08891 | 2701 ft | 100 kts | 289° |
| 2026-04-26 17:52 | 48.79663 | 4.07889 | 2865 ft | 100 kts | 289° |
| 2026-04-26 17:52 | 48.79887 | 4.06889 | 3031 ft | 101 kts | 289° |
| 2026-04-26 17:53 | 48.80113 | 4.05883 | 3190 ft | 101 kts | 289° |
| 2026-04-26 17:53 | 48.80146 | 4.05732 | 3214 ft | 101 kts | 289° |
| 2026-04-26 17:53 | 48.80295 | 4.05063 | 3315 ft | 101 kts | 289° |
| 2026-04-26 17:54 | 48.80747 | 4.03041 | 3615 ft | 101 kts | 289° |
| 2026-04-26 17:54 | 48.80974 | 4.02028 | 3769 ft | 101 kts | 289° |
| 2026-04-26 17:54 | 48.81201 | 4.01012 | 3915 ft | 102 kts | 289° |
| 2026-04-26 17:54 | 48.81429 | 3.99992 | 4053 ft | 102 kts | 289° |
| 2026-04-26 17:55 | 48.81657 | 3.98972 | 4193 ft | 102 kts | 289° |
| 2026-04-26 17:55 | 48.81885 | 3.97949 | 4328 ft | 103 kts | 289° |
| 2026-04-26 17:55 | 48.82115 | 3.96920 | 4461 ft | 103 kts | 289° |
| 2026-04-26 17:55 | 48.82344 | 3.95893 | 4593 ft | 103 kts | 289° |
| 2026-04-26 17:56 | 48.82575 | 3.94863 | 4719 ft | 103 kts | 289° |
| 2026-04-26 17:56 | 48.83036 | 3.92799 | 4967 ft | 104 kts | 289° |
| 2026-04-26 17:57 | 48.83499 | 3.90721 | 5204 ft | 104 kts | 289° |
| 2026-04-26 17:57 | 48.83731 | 3.89681 | 5321 ft | 104 kts | 289° |
| 2026-04-26 17:57 | 48.83960 | 3.88657 | 5437 ft | 104 kts | 289° |
| 2026-04-26 17:57 | 48.84193 | 3.87613 | 5549 ft | 104 kts | 289° |
| 2026-04-26 17:58 | 48.84896 | 3.84469 | 5867 ft | 105 kts | 289° |
| 2026-04-26 17:59 | 48.85372 | 3.82336 | 5999 ft | 111 kts | 289° |
| 2026-04-26 17:59 | 48.85625 | 3.81204 | 6003 ft | 115 kts | 289° |
| 2026-04-26 17:59 | 48.85883 | 3.80048 | 6007 ft | 117 kts | 289° |
| 2026-04-26 17:59 | 48.86145 | 3.78875 | 6008 ft | 117 kts | 289° |
| 2026-04-26 18:00 | 48.86409 | 3.77696 | 6008 ft | 118 kts | 289° |
| 2026-04-26 18:00 | 48.86673 | 3.76514 | 6007 ft | 118 kts | 289° |
| 2026-04-26 18:00 | 48.86935 | 3.75335 | 6008 ft | 118 kts | 289° |
| 2026-04-26 18:00 | 48.87201 | 3.74145 | 6009 ft | 119 kts | 289° |
| 2026-04-26 18:01 | 48.87465 | 3.72962 | 6008 ft | 118 kts | 289° |
| 2026-04-26 18:01 | 48.87729 | 3.71777 | 6008 ft | 118 kts | 289° |
| 2026-04-26 18:01 | 48.87994 | 3.70590 | 6009 ft | 118 kts | 289° |
| 2026-04-26 18:01 | 48.88257 | 3.69406 | 6007 ft | 118 kts | 289° |
| 2026-04-26 18:02 | 48.88521 | 3.68222 | 6007 ft | 118 kts | 289° |
| 2026-04-26 18:02 | 48.88696 | 3.67438 | 6008 ft | 119 kts | 289° |
| 2026-04-26 18:02 | 48.89049 | 3.65851 | 6007 ft | 118 kts | 289° |
| 2026-04-26 18:02 | 48.89313 | 3.64666 | 6007 ft | 118 kts | 289° |
| 2026-04-26 18:03 | 48.89577 | 3.63482 | 6009 ft | 119 kts | 289° |
| 2026-04-26 18:03 | 48.89842 | 3.62293 | 6007 ft | 119 kts | 289° |
| 2026-04-26 18:03 | 48.90105 | 3.61109 | 6007 ft | 118 kts | 289° |
| 2026-04-26 18:03 | 48.90366 | 3.59934 | 6009 ft | 119 kts | 289° |
| 2026-04-26 18:04 | 48.90633 | 3.58735 | 6006 ft | 118 kts | 289° |
| 2026-04-26 18:04 | 48.90897 | 3.57548 | 6007 ft | 119 kts | 289° |
| 2026-04-26 18:04 | 48.91161 | 3.56359 | 6008 ft | 118 kts | 289° |
| 2026-04-26 18:05 | 48.91688 | 3.53988 | 6006 ft | 118 kts | 289° |
| 2026-04-26 18:05 | 48.91951 | 3.52801 | 6008 ft | 119 kts | 289° |
| 2026-04-26 18:05 | 48.92215 | 3.51615 | 6007 ft | 119 kts | 289° |
| 2026-04-26 18:05 | 48.92479 | 3.50424 | 6006 ft | 119 kts | 289° |
| 2026-04-26 18:06 | 48.92744 | 3.49232 | 6007 ft | 119 kts | 289° |
| 2026-04-26 18:06 | 48.93006 | 3.48047 | 6006 ft | 119 kts | 289° |
| 2026-04-26 18:06 | 48.93271 | 3.46858 | 6005 ft | 119 kts | 289° |
| 2026-04-26 18:06 | 48.93574 | 3.45711 | 6004 ft | 118 kts | 301° |
| 2026-04-26 18:07 | 48.94014 | 3.44632 | 6009 ft | 118 kts | 302° |
| 2026-04-26 18:07 | 48.94441 | 3.43577 | 6007 ft | 119 kts | 302° |
| 2026-04-26 18:07 | 48.94873 | 3.42511 | 6009 ft | 119 kts | 302° |
| 2026-04-26 18:07 | 48.95164 | 3.41791 | 6010 ft | 119 kts | 302° |
| 2026-04-26 18:08 | 48.95801 | 3.40438 | 6006 ft | 119 kts | 313° |
| 2026-04-26 18:08 | 48.96350 | 3.39498 | 6007 ft | 118 kts | 312° |
| 2026-04-26 18:08 | 48.96896 | 3.38562 | 6007 ft | 118 kts | 312° |
| 2026-04-26 18:08 | 48.97444 | 3.37626 | 6007 ft | 118 kts | 312° |
| 2026-04-26 18:09 | 48.97993 | 3.36684 | 6007 ft | 119 kts | 312° |
| 2026-04-26 18:09 | 48.98539 | 3.35749 | 6007 ft | 118 kts | 312° |
| 2026-04-26 18:09 | 48.99081 | 3.34819 | 6007 ft | 118 kts | 312° |
| 2026-04-26 18:09 | 48.99629 | 3.33881 | 6004 ft | 118 kts | 312° |
| 2026-04-26 18:10 | 49.00175 | 3.32944 | 6007 ft | 118 kts | 312° |
| 2026-04-26 18:10 | 49.00722 | 3.32008 | 6006 ft | 118 kts | 312° |
| 2026-04-26 18:10 | 49.01270 | 3.31066 | 6005 ft | 119 kts | 312° |
| 2026-04-26 18:10 | 49.01818 | 3.30125 | 6007 ft | 119 kts | 312° |
| 2026-04-26 18:11 | 49.02367 | 3.29183 | 6004 ft | 119 kts | 312° |
| 2026-04-26 18:11 | 49.02916 | 3.28242 | 6006 ft | 119 kts | 312° |
| 2026-04-26 18:11 | 49.03464 | 3.27301 | 6005 ft | 119 kts | 312° |
| 2026-04-26 18:11 | 49.04014 | 3.26358 | 6006 ft | 119 kts | 312° |
| 2026-04-26 18:12 | 49.04561 | 3.25418 | 6006 ft | 118 kts | 312° |
| 2026-04-26 18:12 | 49.05107 | 3.24480 | 6006 ft | 118 kts | 312° |
| 2026-04-26 18:12 | 49.05653 | 3.23541 | 6005 ft | 118 kts | 312° |
| 2026-04-26 18:12 | 49.06194 | 3.22611 | 6006 ft | 119 kts | 312° |
| 2026-04-26 18:13 | 49.06748 | 3.21660 | 6004 ft | 119 kts | 312° |
| 2026-04-26 18:13 | 49.07296 | 3.20718 | 6005 ft | 118 kts | 312° |
| 2026-04-26 18:13 | 49.07841 | 3.19780 | 6005 ft | 118 kts | 312° |
| 2026-04-26 18:13 | 49.08202 | 3.19158 | 6005 ft | 118 kts | 312° |
| 2026-04-26 18:14 | 49.08927 | 3.17910 | 6005 ft | 119 kts | 312° |
| 2026-04-26 18:14 | 49.09475 | 3.16968 | 6005 ft | 119 kts | 312° |
| 2026-04-26 18:14 | 49.10020 | 3.16029 | 6003 ft | 118 kts | 312° |
| 2026-04-26 18:14 | 49.10567 | 3.15088 | 6006 ft | 119 kts | 312° |
| 2026-04-26 18:15 | 49.11116 | 3.14144 | 6005 ft | 119 kts | 312° |
| 2026-04-26 18:15 | 49.11663 | 3.13202 | 6005 ft | 118 kts | 312° |
| 2026-04-26 18:15 | 49.12210 | 3.12261 | 6005 ft | 118 kts | 312° |
| 2026-04-26 18:15 | 49.12756 | 3.11319 | 6003 ft | 118 kts | 312° |
| 2026-04-26 18:16 | 49.13315 | 3.10357 | 5922 ft | 124 kts | 312° |
| 2026-04-26 18:16 | 49.14508 | 3.08315 | 5708 ft | 130 kts | 312° |
| 2026-04-26 18:16 | 49.15115 | 3.07278 | 5570 ft | 133 kts | 312° |
| 2026-04-26 18:17 | 49.15745 | 3.06204 | 5339 ft | 138 kts | 312° |
| 2026-04-26 18:17 | 49.16392 | 3.05103 | 5093 ft | 140 kts | 313° |
| 2026-04-26 18:17 | 49.17039 | 3.04002 | 4956 ft | 134 kts | 312° |
| 2026-04-26 18:17 | 49.17608 | 3.02942 | 4943 ft | 127 kts | 297° |
| 2026-04-26 18:18 | 49.17857 | 3.01678 | 4936 ft | 123 kts | 287° |
| 2026-04-26 18:18 | 49.18089 | 3.00431 | 4935 ft | 121 kts | 286° |
| 2026-04-26 18:18 | 49.18314 | 2.99210 | 4939 ft | 120 kts | 286° |
| 2026-04-26 18:18 | 49.18542 | 2.97970 | 4937 ft | 120 kts | 286° |
| 2026-04-26 18:19 | 49.18767 | 2.96748 | 4939 ft | 119 kts | 286° |
| 2026-04-26 18:19 | 49.18993 | 2.95507 | 4948 ft | 123 kts | 286° |
| 2026-04-26 18:19 | 49.19225 | 2.94246 | 4954 ft | 124 kts | 286° |
| 2026-04-26 18:19 | 49.19458 | 2.92978 | 4954 ft | 124 kts | 286° |
| 2026-04-26 18:20 | 49.19688 | 2.91724 | 4953 ft | 124 kts | 286° |
| 2026-04-26 18:20 | 49.19922 | 2.90448 | 4959 ft | 125 kts | 286° |
| 2026-04-26 18:20 | 49.20159 | 2.89156 | 4958 ft | 125 kts | 286° |
| 2026-04-26 18:20 | 49.20234 | 2.88743 | 4956 ft | 125 kts | 286° |
| 2026-04-26 18:21 | 49.20615 | 2.86618 | 4965 ft | 125 kts | 285° |
| 2026-04-26 18:21 | 49.20835 | 2.85332 | 4967 ft | 125 kts | 285° |
| 2026-04-26 18:21 | 49.21054 | 2.84049 | 4972 ft | 125 kts | 285° |
| 2026-04-26 18:21 | 49.21274 | 2.82762 | 4972 ft | 126 kts | 285° |
| 2026-04-26 18:22 | 49.21495 | 2.81467 | 4971 ft | 126 kts | 285° |
| 2026-04-26 18:22 | 49.21716 | 2.80172 | 4990 ft | 125 kts | 285° |
| 2026-04-26 18:22 | 49.21928 | 2.78921 | 5111 ft | 119 kts | 285° |
| 2026-04-26 18:22 | 49.22132 | 2.77720 | 5231 ft | 115 kts | 285° |
| 2026-04-26 18:23 | 49.22331 | 2.76546 | 5352 ft | 113 kts | 285° |
| 2026-04-26 18:23 | 49.22529 | 2.75381 | 5475 ft | 112 kts | 285° |
| 2026-04-26 18:23 | 49.22724 | 2.74230 | 5601 ft | 111 kts | 285° |
| 2026-04-26 18:23 | 49.22917 | 2.73090 | 5721 ft | 111 kts | 285° |
| 2026-04-26 18:24 | 49.23110 | 2.71952 | 5845 ft | 110 kts | 285° |
| 2026-04-26 18:24 | 49.23302 | 2.70818 | 5971 ft | 110 kts | 285° |
| 2026-04-26 18:24 | 49.23500 | 2.69650 | 5997 ft | 117 kts | 285° |
| 2026-04-26 18:24 | 49.23707 | 2.68435 | 6005 ft | 121 kts | 285° |
| 2026-04-26 18:25 | 49.23923 | 2.67170 | 6009 ft | 124 kts | 285° |
| 2026-04-26 18:25 | 49.24141 | 2.65886 | 6010 ft | 125 kts | 285° |
| 2026-04-26 18:25 | 49.24361 | 2.64596 | 6009 ft | 126 kts | 285° |
| 2026-04-26 18:26 | 49.25236 | 2.59448 | 6008 ft | 126 kts | 285° |
| 2026-04-26 18:26 | 49.25456 | 2.58151 | 6008 ft | 126 kts | 285° |
| 2026-04-26 18:27 | 49.25673 | 2.56875 | 6007 ft | 126 kts | 285° |
| 2026-04-26 18:27 | 49.25892 | 2.55581 | 6005 ft | 126 kts | 285° |
| 2026-04-26 18:27 | 49.26111 | 2.54288 | 6005 ft | 126 kts | 285° |
| 2026-04-26 18:27 | 49.26331 | 2.52988 | 6007 ft | 126 kts | 285° |
| 2026-04-26 18:28 | 49.26550 | 2.51694 | 6006 ft | 126 kts | 285° |
| 2026-04-26 18:28 | 49.26768 | 2.50396 | 6005 ft | 126 kts | 285° |
| 2026-04-26 18:28 | 49.26987 | 2.49101 | 6005 ft | 126 kts | 285° |
| 2026-04-26 18:28 | 49.27207 | 2.47801 | 6005 ft | 126 kts | 285° |
| 2026-04-26 18:29 | 49.27426 | 2.46504 | 6006 ft | 126 kts | 285° |
| 2026-04-26 18:29 | 49.27646 | 2.45205 | 6004 ft | 126 kts | 285° |
| 2026-04-26 18:29 | 49.27866 | 2.43906 | 6004 ft | 126 kts | 285° |
| 2026-04-26 18:29 | 49.28085 | 2.42610 | 6005 ft | 126 kts | 285° |
| 2026-04-26 18:30 | 49.28305 | 2.41312 | 6005 ft | 126 kts | 285° |
| 2026-04-26 18:30 | 49.28525 | 2.40011 | 6003 ft | 126 kts | 285° |
| 2026-04-26 18:30 | 49.28670 | 2.39153 | 6002 ft | 126 kts | 285° |
| 2026-04-26 18:30 | 49.28889 | 2.37855 | 6003 ft | 126 kts | 285° |
| 2026-04-26 18:31 | 49.29108 | 2.36558 | 6003 ft | 126 kts | 285° |
| 2026-04-26 18:31 | 49.29327 | 2.35264 | 6003 ft | 126 kts | 285° |
| 2026-04-26 18:31 | 49.29545 | 2.33967 | 6003 ft | 126 kts | 285° |
| 2026-04-26 18:31 | 49.29765 | 2.32666 | 6002 ft | 126 kts | 285° |
| 2026-04-26 18:32 | 49.29984 | 2.31366 | 6001 ft | 126 kts | 285° |
| 2026-04-26 18:32 | 49.30204 | 2.30062 | 6002 ft | 126 kts | 285° |
| 2026-04-26 18:32 | 49.30423 | 2.28763 | 6003 ft | 126 kts | 285° |
| 2026-04-26 18:32 | 49.30641 | 2.27465 | 5998 ft | 126 kts | 285° |
| 2026-04-26 18:33 | 49.30860 | 2.26165 | 5999 ft | 126 kts | 285° |
| 2026-04-26 18:33 | 49.31079 | 2.24866 | 5999 ft | 126 kts | 285° |
| 2026-04-26 18:33 | 49.31303 | 2.23562 | 6001 ft | 127 kts | 286° |
| 2026-04-26 18:33 | 49.31553 | 2.22207 | 5729 ft | 140 kts | 287° |
| 2026-04-26 18:34 | 49.31855 | 2.20724 | 5253 ft | 148 kts | 289° |
| 2026-04-26 18:34 | 49.32194 | 2.19240 | 4777 ft | 147 kts | 291° |
| 2026-04-26 18:34 | 49.32564 | 2.17776 | 4320 ft | 147 kts | 292° |
| 2026-04-26 18:34 | 49.32960 | 2.16352 | 4000 ft | 138 kts | 295° |
| 2026-04-26 18:35 | 49.33332 | 2.15101 | 3993 ft | 122 kts | 295° |
| 2026-04-26 18:35 | 49.33686 | 2.13971 | 3992 ft | 115 kts | 297° |
| 2026-04-26 18:35 | 49.34039 | 2.12896 | 3995 ft | 111 kts | 298° |
| 2026-04-26 18:35 | 49.34391 | 2.11873 | 3991 ft | 109 kts | 299° |
| 2026-04-26 18:36 | 49.34754 | 2.10859 | 3990 ft | 108 kts | 300° |
| 2026-04-26 18:36 | 49.35127 | 2.09861 | 3989 ft | 107 kts | 301° |
| 2026-04-26 18:36 | 49.35509 | 2.08879 | 3993 ft | 107 kts | 302° |
| 2026-04-26 18:36 | 49.35907 | 2.07896 | 3992 ft | 107 kts | 303° |
| 2026-04-26 18:37 | 49.36304 | 2.06954 | 3989 ft | 107 kts | 304° |
| 2026-04-26 18:37 | 49.36728 | 2.05998 | 3986 ft | 107 kts | 310° |
| 2026-04-26 18:37 | 49.37287 | 2.05290 | 3985 ft | 107 kts | 302° |
| 2026-04-26 18:37 | 49.37307 | 2.04188 | 3998 ft | 106 kts | 262° |
| 2026-04-26 18:38 | 49.37331 | 2.03064 | 4005 ft | 108 kts | 276° |
| 2026-04-26 18:38 | 49.37403 | 2.01853 | 4014 ft | 119 kts | 276° |
| 2026-04-26 18:38 | 49.37483 | 2.00548 | 4009 ft | 125 kts | 276° |
| 2026-04-26 18:38 | 49.37564 | 1.99217 | 4009 ft | 126 kts | 276° |
| 2026-04-26 18:39 | 49.37668 | 1.97889 | 4001 ft | 124 kts | 278° |
| 2026-04-26 18:39 | 49.37778 | 1.96575 | 4006 ft | 123 kts | 278° |
| 2026-04-26 18:39 | 49.37888 | 1.95272 | 4005 ft | 123 kts | 278° |
| 2026-04-26 18:39 | 49.37997 | 1.93972 | 4005 ft | 123 kts | 278° |
| 2026-04-26 18:40 | 49.38107 | 1.92670 | 4004 ft | 123 kts | 278° |
| 2026-04-26 18:40 | 49.38220 | 1.91323 | 4003 ft | 123 kts | 278° |
| 2026-04-26 18:40 | 49.38325 | 1.90070 | 4004 ft | 123 kts | 278° |
| 2026-04-26 18:40 | 49.38434 | 1.88770 | 3999 ft | 123 kts | 278° |
| 2026-04-26 18:41 | 49.38541 | 1.87485 | 4002 ft | 122 kts | 278° |
| 2026-04-26 18:41 | 49.38650 | 1.86184 | 4004 ft | 124 kts | 278° |
| 2026-04-26 18:41 | 49.38760 | 1.84863 | 4006 ft | 125 kts | 278° |
| 2026-04-26 18:41 | 49.38872 | 1.83531 | 4006 ft | 126 kts | 278° |
| 2026-04-26 18:42 | 49.38984 | 1.82193 | 4008 ft | 127 kts | 278° |
| 2026-04-26 18:42 | 49.39096 | 1.80852 | 4007 ft | 127 kts | 278° |
| 2026-04-26 18:42 | 49.39209 | 1.79508 | 4002 ft | 127 kts | 278° |
| 2026-04-26 18:42 | 49.39321 | 1.78167 | 4006 ft | 127 kts | 278° |
| 2026-04-26 18:43 | 49.39432 | 1.76827 | 4006 ft | 126 kts | 278° |
| 2026-04-26 18:43 | 49.39544 | 1.75486 | 4006 ft | 127 kts | 278° |
| 2026-04-26 18:43 | 49.39656 | 1.74145 | 4003 ft | 127 kts | 278° |
| 2026-04-26 18:43 | 49.39768 | 1.72803 | 4006 ft | 127 kts | 278° |
| 2026-04-26 18:44 | 49.39880 | 1.71462 | 4005 ft | 126 kts | 278° |
| 2026-04-26 18:44 | 49.39990 | 1.70133 | 4005 ft | 126 kts | 278° |
| 2026-04-26 18:44 | 49.40101 | 1.68803 | 3999 ft | 125 kts | 278° |
| 2026-04-26 18:44 | 49.40211 | 1.67476 | 4004 ft | 126 kts | 278° |
| 2026-04-26 18:45 | 49.40321 | 1.66145 | 4002 ft | 125 kts | 278° |
| 2026-04-26 18:45 | 49.40431 | 1.64821 | 3996 ft | 125 kts | 278° |
| 2026-04-26 18:45 | 49.40541 | 1.63500 | 4002 ft | 125 kts | 278° |
| 2026-04-26 18:45 | 49.40650 | 1.62174 | 3997 ft | 125 kts | 278° |
| 2026-04-26 18:46 | 49.40760 | 1.60848 | 4001 ft | 125 kts | 278° |
| 2026-04-26 18:46 | 49.40869 | 1.59524 | 4002 ft | 126 kts | 278° |
| 2026-04-26 18:46 | 49.40979 | 1.58194 | 3994 ft | 125 kts | 278° |
| 2026-04-26 18:46 | 49.41089 | 1.56866 | 4001 ft | 125 kts | 278° |
| 2026-04-26 18:47 | 49.41199 | 1.55539 | 4002 ft | 125 kts | 278° |
| 2026-04-26 18:47 | 49.41309 | 1.54205 | 3994 ft | 126 kts | 278° |
| 2026-04-26 18:47 | 49.41419 | 1.52873 | 4001 ft | 126 kts | 278° |
| 2026-04-26 18:47 | 49.41528 | 1.51543 | 4000 ft | 126 kts | 278° |
| 2026-04-26 18:48 | 49.41638 | 1.50217 | 4000 ft | 125 kts | 278° |
| 2026-04-26 18:48 | 49.41748 | 1.48887 | 4000 ft | 125 kts | 277° |
| 2026-04-26 18:48 | 49.41857 | 1.47558 | 3991 ft | 126 kts | 278° |
| 2026-04-26 18:48 | 49.41966 | 1.46230 | 3999 ft | 125 kts | 278° |
| 2026-04-26 18:49 | 49.42076 | 1.44901 | 3998 ft | 125 kts | 278° |
| 2026-04-26 18:49 | 49.42184 | 1.43575 | 4000 ft | 126 kts | 278° |
| 2026-04-26 18:49 | 49.42294 | 1.42245 | 3999 ft | 126 kts | 278° |
| 2026-04-26 18:49 | 49.42404 | 1.40912 | 3989 ft | 125 kts | 278° |
| 2026-04-26 18:50 | 49.42513 | 1.39584 | 3998 ft | 125 kts | 278° |
| 2026-04-26 18:50 | 49.42622 | 1.38258 | 3994 ft | 125 kts | 278° |
| 2026-04-26 18:50 | 49.42730 | 1.36933 | 3999 ft | 125 kts | 278° |
| 2026-04-26 18:50 | 49.42839 | 1.35601 | 3997 ft | 125 kts | 278° |
| 2026-04-26 18:51 | 49.42947 | 1.34275 | 3996 ft | 125 kts | 278° |
| 2026-04-26 18:51 | 49.43055 | 1.32951 | 3996 ft | 125 kts | 278° |
| 2026-04-26 18:51 | 49.43161 | 1.31645 | 3996 ft | 125 kts | 278° |
| 2026-04-26 18:51 | 49.43270 | 1.30317 | 3993 ft | 125 kts | 277° |
| 2026-04-26 18:52 | 49.43379 | 1.28992 | 3996 ft | 125 kts | 278° |
| 2026-04-26 18:52 | 49.43487 | 1.27665 | 3996 ft | 125 kts | 278° |
| 2026-04-26 18:52 | 49.43595 | 1.26332 | 3997 ft | 125 kts | 278° |
| 2026-04-26 18:52 | 49.43704 | 1.25002 | 3997 ft | 126 kts | 278° |
| 2026-04-26 18:53 | 49.43813 | 1.23668 | 3995 ft | 125 kts | 278° |
| 2026-04-26 18:53 | 49.43921 | 1.22341 | 3995 ft | 125 kts | 277° |
| 2026-04-26 18:53 | 49.44029 | 1.21010 | 3995 ft | 125 kts | 277° |
| 2026-04-26 18:53 | 49.44137 | 1.19684 | 3995 ft | 125 kts | 278° |
| 2026-04-26 18:54 | 49.44245 | 1.18353 | 3994 ft | 126 kts | 278° |
| 2026-04-26 18:54 | 49.44352 | 1.17023 | 3993 ft | 125 kts | 278° |
| 2026-04-26 18:54 | 49.44460 | 1.15698 | 3994 ft | 125 kts | 278° |
| 2026-04-26 18:54 | 49.44568 | 1.14371 | 3993 ft | 125 kts | 278° |
| 2026-04-26 18:55 | 49.44675 | 1.13045 | 3993 ft | 125 kts | 278° |
| 2026-04-26 18:55 | 49.44783 | 1.11714 | 3992 ft | 125 kts | 277° |
| 2026-04-26 18:55 | 49.44889 | 1.10404 | 3992 ft | 125 kts | 278° |
| 2026-04-26 18:55 | 49.44997 | 1.09077 | 3989 ft | 125 kts | 277° |
| 2026-04-26 18:56 | 49.45104 | 1.07754 | 3992 ft | 125 kts | 277° |
| 2026-04-26 18:56 | 49.45211 | 1.06425 | 3990 ft | 125 kts | 278° |
| 2026-04-26 18:56 | 49.45318 | 1.05104 | 3994 ft | 125 kts | 278° |
| 2026-04-26 18:56 | 49.45425 | 1.03774 | 3993 ft | 125 kts | 278° |
| 2026-04-26 18:57 | 49.45533 | 1.02443 | 3992 ft | 125 kts | 278° |
| 2026-04-26 18:57 | 49.45603 | 1.01562 | 3992 ft | 125 kts | 277° |
| 2026-04-26 18:57 | 49.45746 | 0.99793 | 3989 ft | 125 kts | 278° |
| 2026-04-26 18:57 | 49.45853 | 0.98463 | 3993 ft | 125 kts | 278° |
| 2026-04-26 18:58 | 49.45960 | 0.97136 | 3989 ft | 125 kts | 277° |
| 2026-04-26 18:58 | 49.46067 | 0.95811 | 3993 ft | 125 kts | 277° |
| 2026-04-26 18:58 | 49.46174 | 0.94479 | 3993 ft | 125 kts | 277° |
| 2026-04-26 18:58 | 49.46280 | 0.93156 | 3993 ft | 125 kts | 277° |
| 2026-04-26 18:59 | 49.46387 | 0.91825 | 3994 ft | 125 kts | 278° |
| 2026-04-26 18:59 | 49.46494 | 0.90496 | 3988 ft | 125 kts | 278° |
| 2026-04-26 18:59 | 49.46600 | 0.89167 | 3993 ft | 125 kts | 278° |
| 2026-04-26 18:59 | 49.46707 | 0.87837 | 3993 ft | 125 kts | 277° |
| 2026-04-26 19:00 | 49.46813 | 0.86507 | 3991 ft | 125 kts | 277° |
| 2026-04-26 19:00 | 49.46919 | 0.85182 | 3992 ft | 125 kts | 277° |
| 2026-04-26 19:00 | 49.47026 | 0.83855 | 3986 ft | 125 kts | 277° |
| 2026-04-26 19:00 | 49.47132 | 0.82526 | 3993 ft | 125 kts | 278° |
| 2026-04-26 19:01 | 49.47237 | 0.81202 | 3993 ft | 125 kts | 278° |
| 2026-04-26 19:01 | 49.47344 | 0.79866 | 3989 ft | 125 kts | 277° |
| 2026-04-26 19:01 | 49.47450 | 0.78539 | 3992 ft | 125 kts | 277° |
| 2026-04-26 19:01 | 49.47555 | 0.77229 | 3992 ft | 125 kts | 277° |
| 2026-04-26 19:02 | 49.47660 | 0.75899 | 3988 ft | 125 kts | 278° |
| 2026-04-26 19:02 | 49.47766 | 0.74570 | 3993 ft | 126 kts | 277° |
| 2026-04-26 19:02 | 49.47872 | 0.73236 | 3992 ft | 125 kts | 277° |
| 2026-04-26 19:02 | 49.47944 | 0.72341 | 3993 ft | 125 kts | 277° |
| 2026-04-26 19:03 | 49.48084 | 0.70580 | 3992 ft | 125 kts | 277° |
| 2026-04-26 19:03 | 49.48189 | 0.69255 | 3993 ft | 125 kts | 277° |
| 2026-04-26 19:03 | 49.48294 | 0.67929 | 3990 ft | 125 kts | 277° |
| 2026-04-26 19:03 | 49.48399 | 0.66597 | 3993 ft | 125 kts | 277° |
| 2026-04-26 19:04 | 49.48505 | 0.65270 | 3993 ft | 125 kts | 277° |
| 2026-04-26 19:04 | 49.48610 | 0.63945 | 3988 ft | 125 kts | 277° |
| 2026-04-26 19:04 | 49.48715 | 0.62608 | 3994 ft | 125 kts | 277° |
| 2026-04-26 19:04 | 49.48821 | 0.61279 | 3994 ft | 125 kts | 277° |
| 2026-04-26 19:05 | 49.49031 | 0.58619 | 3992 ft | 125 kts | 277° |
| 2026-04-26 19:05 | 49.49136 | 0.57295 | 3993 ft | 125 kts | 277° |
| 2026-04-26 19:05 | 49.49240 | 0.55968 | 3993 ft | 125 kts | 277° |
| 2026-04-26 19:06 | 49.49345 | 0.54640 | 3987 ft | 125 kts | 277° |
| 2026-04-26 19:06 | 49.49449 | 0.53320 | 3992 ft | 126 kts | 277° |
| 2026-04-26 19:06 | 49.49571 | 0.51976 | 3993 ft | 125 kts | 279° |
| 2026-04-26 19:06 | 49.49704 | 0.50667 | 3990 ft | 125 kts | 279° |
| 2026-04-26 19:07 | 49.49839 | 0.49342 | 3993 ft | 125 kts | 279° |
| 2026-04-26 19:07 | 49.49973 | 0.48024 | 3992 ft | 125 kts | 279° |
| 2026-04-26 19:07 | 49.50108 | 0.46700 | 3988 ft | 125 kts | 279° |
| 2026-04-26 19:07 | 49.50252 | 0.45383 | 3990 ft | 125 kts | 281° |
| 2026-04-26 19:08 | 49.50402 | 0.44062 | 3993 ft | 125 kts | 281° |
| 2026-04-26 19:08 | 49.50552 | 0.42740 | 3994 ft | 126 kts | 281° |
| 2026-04-26 19:08 | 49.50701 | 0.41418 | 3992 ft | 126 kts | 280° |
| 2026-04-26 19:08 | 49.50851 | 0.40095 | 3994 ft | 125 kts | 280° |
| 2026-04-26 19:09 | 49.51001 | 0.38772 | 3991 ft | 126 kts | 281° |
| 2026-04-26 19:09 | 49.51150 | 0.37450 | 3994 ft | 126 kts | 281° |
| 2026-04-26 19:09 | 49.51300 | 0.36121 | 3959 ft | 128 kts | 281° |
| 2026-04-26 19:09 | 49.51452 | 0.34782 | 3958 ft | 126 kts | 280° |
| 2026-04-26 19:10 | 49.51602 | 0.33456 | 3957 ft | 126 kts | 280° |
| 2026-04-26 19:10 | 49.51753 | 0.32121 | 3870 ft | 127 kts | 281° |
| 2026-04-26 19:10 | 49.51905 | 0.30797 | 3743 ft | 125 kts | 281° |
| 2026-04-26 19:10 | 49.52080 | 0.29493 | 3615 ft | 124 kts | 283° |
| 2026-04-26 19:11 | 49.52273 | 0.28196 | 3475 ft | 126 kts | 284° |
| 2026-04-26 19:11 | 49.52470 | 0.26874 | 3303 ft | 128 kts | 283° |
| 2026-04-26 19:11 | 49.52670 | 0.25539 | 3129 ft | 128 kts | 283° |
| 2026-04-26 19:11 | 49.52872 | 0.24193 | 2950 ft | 128 kts | 284° |
| 2026-04-26 19:12 | 49.53102 | 0.22885 | 2782 ft | 128 kts | 289° |
| 2026-04-26 19:12 | 49.53382 | 0.21560 | 2605 ft | 129 kts | 289° |
| 2026-04-26 19:12 | 49.53566 | 0.20688 | 2491 ft | 129 kts | 288° |
| 2026-04-26 19:12 | 49.53843 | 0.19371 | 2316 ft | 129 kts | 289° |
| 2026-04-26 19:13 | 49.54209 | 0.17634 | 2046 ft | 124 kts | 288° |
| 2026-04-26 19:13 | 49.54461 | 0.16428 | 1857 ft | 115 kts | 292° |
| 2026-04-26 19:13 | 49.54747 | 0.15275 | 1598 ft | 114 kts | 291° |
| 2026-04-26 19:13 | 49.54921 | 0.14505 | 1429 ft | 112 kts | 289° |
| 2026-04-26 19:14 | 49.55192 | 0.13030 | 1101 ft | 99 kts | 279° |
| 2026-04-26 19:14 | 49.55220 | 0.12333 | 927 ft | 95 kts | 268° |
| 2026-04-26 19:14 | 49.55068 | 0.11351 | 663 ft | 93 kts | 245° |
| 2026-04-26 19:14 | 49.54827 | 0.10828 | 510 ft | 88 kts | 226° |
| 2026-04-26 19:15 | 49.54273 | 0.10075 | 338 ft | 68 kts | 223° |
| 2026-04-26 19:15 | 49.53979 | 0.09658 | 305 ft | 49 kts | 223° |
| 2026-04-26 19:15 | 49.53733 | 0.09309 | 305 ft | 47 kts | 222° |
| 2026-04-26 19:15 | 49.53502 | 0.08982 | 308 ft | 44 kts | 224° |
| 2026-04-26 19:16 | 49.53346 | 0.08874 | 307 ft | 18 kts | 132° |
| 2026-04-26 19:16 | 49.53287 | 0.08971 | 308 ft | 0 kts | 131° |
| 2026-04-26 19:16 | 49.53278 | 0.08987 | 308 ft | 10 kts | 131° |
| 2026-04-26 19:16 | 49.53256 | 0.09142 | 308 ft | 16 kts | 65° |
| 2026-04-26 19:17 | 49.53243 | 0.09266 | 307 ft | 12 kts | 97° |